NCAR-RAP Real-Time Weather Data

Output produced by METARs form (19 June 2019  11:17 UTC)
found at http://weather.rap.ucar.edu/surface/
 
KDTW 191053Z 00000KT 2 1/2SM HZ SCT060 OVC220 17/14 A2983 RMK AO2 TWR VIS 4 SLP099 T01720139 $
KDTW 191041Z 00000KT 2 1/2SM HZ SCT060 OVC220 17/14 A2983 RMK AO2 TWR VIS 4 T01720139 $
KDTW 190953Z 00000KT 3SM BR SCT055 OVC220 16/14 A2983 RMK AO2 TWR VIS 4 SLP099 T01610139 $
KDTW 190853Z 00000KT 3SM HZ SCT045 OVC220 17/14 A2985 RMK AO2 TWR VIS 4 SLP104 T01670139 56008 $
KDTW 190753Z 00000KT 5SM HZ OVC220 17/14 A2985 RMK AO2 SLP102 T01720139 $
KDTW 190653Z 00000KT 5SM HZ OVC220 18/14 A2985 RMK AO2 SLP105 T01780144 $
KDTW 190553Z 00000KT 7SM OVC220 18/14 A2987 RMK AO2 SLP110 T01780144 10233 20178 58005 $
KDTW 190453Z 00000KT 8SM BKN220 18/14 A2988 RMK AO2 SLP116 T01780139 402560144 $
KDTW 190353Z 00000KT 9SM BKN220 19/13 A2989 RMK AO2 SLP118 T01890133 $
KDTW 190253Z 00000KT 9SM FEW060 SCT250 19/13 A2988 RMK AO2 SLP117 T01940133 53002 $
KDTW 190153Z 16003KT 9SM FEW060 SCT250 21/13 A2988 RMK AO2 SLP115 T02060133 $
KDTW 190053Z 15005KT 10SM FEW040 SCT060 SCT250 22/13 A2988 RMK AO2 SLP114 T02170133 $
KDTW 182353Z 17007KT 120V180 10SM FEW040 SCT055 SCT250 23/14 A2988 RMK AO2 SLP115 T02330144 10256 20233 55005 $
KDTW 182253Z 15005KT 10SM FEW040 SCT055 SCT250 24/15 A2987 RMK AO2 SLP113 T02390150 $
KDTW 182153Z 16010KT 10SM FEW035 SCT055 BKN250 24/15 A2989 RMK AO2 SLP118 T02440150 $
KDTW 182053Z 17008KT 10SM FEW035 BKN060 BKN250 24/15 A2989 RMK AO2 SLP121 T02440150 58018
KDTW 181953Z VRB04KT 10SM SCT035 BKN060 26/15 A2992 RMK AO2 SLP127 T02560150
KDTW 181853Z 16006KT 10SM FEW035 BKN060 25/15 A2993 RMK AO2 SLP133 T02500150
KDTW 181753Z 15004KT 10SM BKN032 BKN060 24/14 A2995 RMK AO2 SLP139 T02390144 10239 20167 58011
KDTW 181653Z 00000KT 9SM BKN030 OVC060 23/14 A2996 RMK AO2 SLP144 T02280144
KDTW 181553Z 00000KT 9SM FEW030 FEW045 BKN060 22/14 A2997 RMK AO2 SLP147 T02220144
KDTW 181453Z 14004KT 10SM FEW025 BKN030 OVC045 21/13 A2998 RMK AO2 SLP150 T02060128 51002
KDTW 181353Z 00000KT 9SM BKN030 OVC045 19/12 A2998 RMK AO2 SLP151 T01890117